sim
Sign-in with your pilot id or email,
or register
Callsign
Passwort

Schedule Details

Flight Number: DLH2668 (2)
Departure: Munich Airport (EDDM) at 13:45
Arrival: Malaga Costa Del Sol Airport (LEMG) at 16:40
Route: Lufthansa Passenger Schedule. Enter filed route here before submitting Pirep.

Weather Information
Getting current METAR information for EDDM 181320Z 08011KT CAVOK 19/10 Q1024 NOSIG
Getting current METAR information for LEMG 181300Z 11014KT 9999 FEW013 FEW030TCU BKN049 24/21 Q1015 NOSIG

Schedule Frequency

Route Map